sensor_id;sensor_type;location;lat;lon;timestamp;P1;durP1;ratioP1;P2;durP2;ratioP2
20034;SDS011;10178;48.034;9.800;2023-11-18T00:02:00;5.97;;;4.77;;
20034;SDS011;10178;48.034;9.800;2023-11-18T00:04:25;5.60;;;5.00;;
20034;SDS011;10178;48.034;9.800;2023-11-18T00:06:51;6.07;;;5.30;;
20034;SDS011;10178;48.034;9.800;2023-11-18T00:09:17;5.33;;;4.83;;
20034;SDS011;10178;48.034;9.800;2023-11-18T00:11:43;6.00;;;4.90;;
20034;SDS011;10178;48.034;9.800;2023-11-18T00:14:09;7.03;;;5.53;;
20034;SDS011;10178;48.034;9.800;2023-11-18T00:16:38;5.97;;;4.87;;
20034;SDS011;10178;48.034;9.800;2023-11-18T00:19:03;5.57;;;4.73;;
20034;SDS011;10178;48.034;9.800;2023-11-18T00:21:34;4.33;;;3.93;;
20034;SDS011;10178;48.034;9.800;2023-11-18T00:24:01;5.03;;;4.53;;
20034;SDS011;10178;48.034;9.800;2023-11-18T00:26:27;5.17;;;4.67;;
20034;SDS011;10178;48.034;9.800;2023-11-18T00:28:52;4.83;;;3.80;;
20034;SDS011;10178;48.034;9.800;2023-11-18T00:31:18;4.17;;;3.77;;
20034;SDS011;10178;48.034;9.800;2023-11-18T00:33:44;4.83;;;3.60;;
20034;SDS011;10178;48.034;9.800;2023-11-18T00:36:10;4.03;;;3.60;;
20034;SDS011;10178;48.034;9.800;2023-11-18T00:38:35;3.23;;;2.93;;
20034;SDS011;10178;48.034;9.800;2023-11-18T00:41:01;4.73;;;2.97;;
20034;SDS011;10178;48.034;9.800;2023-11-18T00:43:26;3.67;;;3.13;;
20034;SDS011;10178;48.034;9.800;2023-11-18T00:45:52;3.65;;;2.92;;
20034;SDS011;10178;48.034;9.800;2023-11-18T00:48:18;4.30;;;3.38;;
20034;SDS011;10178;48.034;9.800;2023-11-18T00:50:43;4.00;;;3.30;;
20034;SDS011;10178;48.034;9.800;2023-11-18T00:53:09;5.18;;;4.65;;
20034;SDS011;10178;48.034;9.800;2023-11-18T00:55:35;3.77;;;3.43;;
20034;SDS011;10178;48.034;9.800;2023-11-18T00:58:01;3.67;;;3.37;;
20034;SDS011;10178;48.034;9.800;2023-11-18T01:00:26;3.80;;;3.10;;
20034;SDS011;10178;48.034;9.800;2023-11-18T01:02:52;9.33;;;3.50;;
20034;SDS011;10178;48.034;9.800;2023-11-18T01:05:19;4.40;;;3.30;;
20034;SDS011;10178;48.034;9.800;2023-11-18T01:07:45;3.87;;;3.53;;
20034;SDS011;10178;48.034;9.800;2023-11-18T01:10:11;4.57;;;3.40;;
20034;SDS011;10178;48.034;9.800;2023-11-18T01:12:38;4.47;;;3.70;;
20034;SDS011;10178;48.034;9.800;2023-11-18T01:15:04;5.00;;;4.00;;
20034;SDS011;10178;48.034;9.800;2023-11-18T01:17:31;6.33;;;4.53;;
20034;SDS011;10178;48.034;9.800;2023-11-18T01:19:58;5.80;;;4.90;;
20034;SDS011;10178;48.034;9.800;2023-11-18T01:22:24;5.07;;;4.57;;
20034;SDS011;10178;48.034;9.800;2023-11-18T01:24:50;5.40;;;4.37;;
20034;SDS011;10178;48.034;9.800;2023-11-18T01:27:18;4.20;;;3.53;;
20034;SDS011;10178;48.034;9.800;2023-11-18T01:29:45;4.97;;;3.57;;
20034;SDS011;10178;48.034;9.800;2023-11-18T01:32:12;4.20;;;3.43;;
20034;SDS011;10178;48.034;9.800;2023-11-18T01:34:39;3.63;;;3.27;;
20034;SDS011;10178;48.034;9.800;2023-11-18T01:37:05;3.43;;;3.07;;
20034;SDS011;10178;48.034;9.800;2023-11-18T01:39:32;3.43;;;3.10;;
20034;SDS011;10178;48.034;9.800;2023-11-18T01:41:58;3.30;;;3.00;;
20034;SDS011;10178;48.034;9.800;2023-11-18T01:44:24;2.90;;;2.70;;
20034;SDS011;10178;48.034;9.800;2023-11-18T01:46:53;2.83;;;2.53;;
20034;SDS011;10178;48.034;9.800;2023-11-18T01:49:22;3.33;;;3.03;;
20034;SDS011;10178;48.034;9.800;2023-11-18T01:51:52;4.90;;;4.40;;
20034;SDS011;10178;48.034;9.800;2023-11-18T01:54:18;5.27;;;3.90;;
20034;SDS011;10178;48.034;9.800;2023-11-18T01:56:48;4.27;;;3.87;;
20034;SDS011;10178;48.034;9.800;2023-11-18T01:59:14;4.80;;;4.20;;
20034;SDS011;10178;48.034;9.800;2023-11-18T02:01:46;4.55;;;3.83;;
20034;SDS011;10178;48.034;9.800;2023-11-18T02:04:14;4.93;;;4.20;;
20034;SDS011;10178;48.034;9.800;2023-11-18T02:06:41;3.97;;;3.50;;
20034;SDS011;10178;48.034;9.800;2023-11-18T02:09:08;5.20;;;3.20;;
20034;SDS011;10178;48.034;9.800;2023-11-18T02:11:37;3.37;;;3.07;;
20034;SDS011;10178;48.034;9.800;2023-11-18T02:14:09;6.57;;;3.53;;
20034;SDS011;10178;48.034;9.800;2023-11-18T02:16:41;3.60;;;3.23;;
20034;SDS011;10178;48.034;9.800;2023-11-18T02:19:16;4.97;;;3.57;;
20034;SDS011;10178;48.034;9.800;2023-11-18T02:21:46;6.63;;;4.63;;
20034;SDS011;10178;48.034;9.800;2023-11-18T02:24:27;4.17;;;3.73;;
20034;SDS011;10178;48.034;9.800;2023-11-18T02:26:59;4.33;;;3.90;;
20034;SDS011;10178;48.034;9.800;2023-11-18T02:29:26;3.53;;;3.20;;
20034;SDS011;10178;48.034;9.800;2023-11-18T02:34:56;3.78;;;3.33;;
20034;SDS011;10178;48.034;9.800;2023-11-18T02:37:35;4.07;;;3.40;;
20034;SDS011;10178;48.034;9.800;2023-11-18T02:40:04;4.40;;;3.80;;
20034;SDS011;10178;48.034;9.800;2023-11-18T02:42:36;3.63;;;3.03;;
20034;SDS011;10178;48.034;9.800;2023-11-18T02:45:04;3.90;;;3.17;;
20034;SDS011;10178;48.034;9.800;2023-11-18T02:47:32;6.50;;;4.43;;
20034;SDS011;10178;48.034;9.800;2023-11-18T02:49:58;3.97;;;3.40;;
20034;SDS011;10178;48.034;9.800;2023-11-18T02:52:30;4.23;;;3.20;;
20034;SDS011;10178;48.034;9.800;2023-11-18T02:54:58;4.17;;;3.60;;
20034;SDS011;10178;48.034;9.800;2023-11-18T02:57:23;3.53;;;3.03;;
20034;SDS011;10178;48.034;9.800;2023-11-18T02:59:49;6.25;;;3.45;;
20034;SDS011;10178;48.034;9.800;2023-11-18T03:02:14;5.80;;;4.37;;
20034;SDS011;10178;48.034;9.800;2023-11-18T03:04:40;7.07;;;5.00;;
20034;SDS011;10178;48.034;9.800;2023-11-18T03:07:07;5.80;;;4.83;;
20034;SDS011;10178;48.034;9.800;2023-11-18T03:09:33;4.47;;;3.87;;
20034;SDS011;10178;48.034;9.800;2023-11-18T03:12:00;5.90;;;4.00;;
20034;SDS011;10178;48.034;9.800;2023-11-18T03:14:25;4.17;;;3.40;;
20034;SDS011;10178;48.034;9.800;2023-11-18T03:16:51;4.30;;;3.58;;
20034;SDS011;10178;48.034;9.800;2023-11-18T03:19:16;3.67;;;3.30;;
20034;SDS011;10178;48.034;9.800;2023-11-18T03:21:44;4.83;;;3.83;;
20034;SDS011;10178;48.034;9.800;2023-11-18T03:24:15;3.90;;;3.50;;
20034;SDS011;10178;48.034;9.800;2023-11-18T03:26:41;3.42;;;3.13;;
20034;SDS011;10178;48.034;9.800;2023-11-18T03:29:07;4.47;;;3.70;;
20034;SDS011;10178;48.034;9.800;2023-11-18T03:31:32;4.00;;;3.23;;
20034;SDS011;10178;48.034;9.800;2023-11-18T03:33:58;3.50;;;3.20;;
20034;SDS011;10178;48.034;9.800;2023-11-18T03:36:24;3.40;;;3.10;;
20034;SDS011;10178;48.034;9.800;2023-11-18T03:38:50;3.70;;;3.28;;
20034;SDS011;10178;48.034;9.800;2023-11-18T03:41:15;3.88;;;3.33;;
20034;SDS011;10178;48.034;9.800;2023-11-18T03:43:41;3.65;;;3.10;;
20034;SDS011;10178;48.034;9.800;2023-11-18T03:46:07;3.45;;;3.15;;
20034;SDS011;10178;48.034;9.800;2023-11-18T03:48:32;3.93;;;3.53;;
20034;SDS011;10178;48.034;9.800;2023-11-18T03:50:58;3.83;;;3.10;;
20034;SDS011;10178;48.034;9.800;2023-11-18T03:53:23;4.10;;;3.50;;
20034;SDS011;10178;48.034;9.800;2023-11-18T03:55:49;4.03;;;3.63;;
20034;SDS011;10178;48.034;9.800;2023-11-18T03:58:16;3.97;;;3.57;;
20034;SDS011;10178;48.034;9.800;2023-11-18T04:00:42;4.53;;;3.35;;
20034;SDS011;10178;48.034;9.800;2023-11-18T04:03:08;5.70;;;5.10;;
20034;SDS011;10178;48.034;9.800;2023-11-18T04:05:34;4.93;;;3.80;;
20034;SDS011;10178;48.034;9.800;2023-11-18T04:08:00;4.40;;;4.00;;
20034;SDS011;10178;48.034;9.800;2023-11-18T04:10:26;5.43;;;3.93;;
20034;SDS011;10178;48.034;9.800;2023-11-18T04:12:52;5.68;;;3.58;;
20034;SDS011;10178;48.034;9.800;2023-11-18T04:15:17;4.90;;;4.40;;
20034;SDS011;10178;48.034;9.800;2023-11-18T04:17:43;5.07;;;4.43;;
20034;SDS011;10178;48.034;9.800;2023-11-18T04:20:09;6.85;;;6.15;;
20034;SDS011;10178;48.034;9.800;2023-11-18T04:22:40;8.70;;;6.60;;
20034;SDS011;10178;48.034;9.800;2023-11-18T04:25:07;4.93;;;3.75;;
20034;SDS011;10178;48.034;9.800;2023-11-18T04:27:33;4.25;;;3.85;;
20034;SDS011;10178;48.034;9.800;2023-11-18T04:29:59;4.55;;;3.83;;
20034;SDS011;10178;48.034;9.800;2023-11-18T04:32:24;4.00;;;3.60;;
20034;SDS011;10178;48.034;9.800;2023-11-18T04:34:50;4.90;;;4.27;;
20034;SDS011;10178;48.034;9.800;2023-11-18T04:37:16;6.85;;;4.82;;
20034;SDS011;10178;48.034;9.800;2023-11-18T04:39:42;5.78;;;5.18;;
20034;SDS011;10178;48.034;9.800;2023-11-18T04:42:08;7.00;;;5.83;;
20034;SDS011;10178;48.034;9.800;2023-11-18T04:44:34;8.47;;;6.20;;
20034;SDS011;10178;48.034;9.800;2023-11-18T04:46:59;5.20;;;4.00;;
20034;SDS011;10178;48.034;9.800;2023-11-18T04:49:26;4.53;;;3.70;;
20034;SDS011;10178;48.034;9.800;2023-11-18T04:51:51;4.78;;;3.65;;
20034;SDS011;10178;48.034;9.800;2023-11-18T04:54:17;4.33;;;3.93;;
20034;SDS011;10178;48.034;9.800;2023-11-18T04:56:44;6.47;;;5.80;;
20034;SDS011;10178;48.034;9.800;2023-11-18T04:59:10;6.50;;;4.28;;
20034;SDS011;10178;48.034;9.800;2023-11-18T05:01:35;5.30;;;4.30;;
20034;SDS011;10178;48.034;9.800;2023-11-18T05:04:02;4.53;;;4.05;;
20034;SDS011;10178;48.034;9.800;2023-11-18T05:06:28;4.33;;;3.93;;
20034;SDS011;10178;48.034;9.800;2023-11-18T05:08:54;4.40;;;4.00;;
20034;SDS011;10178;48.034;9.800;2023-11-18T05:11:20;5.72;;;4.43;;
20034;SDS011;10178;48.034;9.800;2023-11-18T05:13:45;5.10;;;4.43;;
20034;SDS011;10178;48.034;9.800;2023-11-18T05:16:11;4.10;;;3.63;;
20034;SDS011;10178;48.034;9.800;2023-11-18T05:18:37;8.10;;;5.38;;
20034;SDS011;10178;48.034;9.800;2023-11-18T05:21:04;4.73;;;4.23;;
20034;SDS011;10178;48.034;9.800;2023-11-18T05:23:30;4.70;;;4.20;;
20034;SDS011;10178;48.034;9.800;2023-11-18T05:25:56;4.95;;;4.35;;
20034;SDS011;10178;48.034;9.800;2023-11-18T05:28:23;6.93;;;6.22;;
20034;SDS011;10178;48.034;9.800;2023-11-18T05:30:49;9.25;;;7.13;;
20034;SDS011;10178;48.034;9.800;2023-11-18T05:33:16;8.43;;;6.88;;
20034;SDS011;10178;48.034;9.800;2023-11-18T05:35:46;7.83;;;6.53;;
20034;SDS011;10178;48.034;9.800;2023-11-18T05:38:15;11.03;;;7.97;;
20034;SDS011;10178;48.034;9.800;2023-11-18T05:40:49;14.33;;;8.60;;
20034;SDS011;10178;48.034;9.800;2023-11-18T05:43:28;10.10;;;7.97;;
20034;SDS011;10178;48.034;9.800;2023-11-18T05:46:01;8.10;;;6.40;;
20034;SDS011;10178;48.034;9.800;2023-11-18T05:48:50;10.20;;;7.27;;
20034;SDS011;10178;48.034;9.800;2023-11-18T05:51:22;7.33;;;6.43;;
20034;SDS011;10178;48.034;9.800;2023-11-18T05:53:49;9.57;;;7.33;;
20034;SDS011;10178;48.034;9.800;2023-11-18T05:56:16;7.73;;;6.23;;
20034;SDS011;10178;48.034;9.800;2023-11-18T05:58:42;8.53;;;7.10;;
20034;SDS011;10178;48.034;9.800;2023-11-18T06:01:11;9.00;;;7.13;;
20034;SDS011;10178;48.034;9.800;2023-11-18T06:03:41;10.17;;;7.00;;
20034;SDS011;10178;48.034;9.800;2023-11-18T06:06:08;8.50;;;5.97;;
20034;SDS011;10178;48.034;9.800;2023-11-18T06:08:35;9.87;;;6.90;;
20034;SDS011;10178;48.034;9.800;2023-11-18T06:11:04;6.83;;;6.07;;
20034;SDS011;10178;48.034;9.800;2023-11-18T06:13:38;8.97;;;6.00;;
20034;SDS011;10178;48.034;9.800;2023-11-18T06:16:31;8.47;;;7.07;;
20034;SDS011;10178;48.034;9.800;2023-11-18T06:18:57;7.67;;;6.50;;
20034;SDS011;10178;48.034;9.800;2023-11-18T06:21:24;7.33;;;6.50;;
20034;SDS011;10178;48.034;9.800;2023-11-18T06:23:53;8.80;;;6.40;;
20034;SDS011;10178;48.034;9.800;2023-11-18T06:26:22;8.53;;;6.43;;
20034;SDS011;10178;48.034;9.800;2023-11-18T06:28:52;6.83;;;5.77;;
20034;SDS011;10178;48.034;9.800;2023-11-18T06:31:19;8.37;;;6.83;;
20034;SDS011;10178;48.034;9.800;2023-11-18T06:33:45;8.37;;;7.03;;
20034;SDS011;10178;48.034;9.800;2023-11-18T06:38:42;9.43;;;7.00;;
20034;SDS011;10178;48.034;9.800;2023-11-18T06:41:09;9.77;;;7.07;;
20034;SDS011;10178;48.034;9.800;2023-11-18T06:43:39;7.33;;;6.00;;
20034;SDS011;10178;48.034;9.800;2023-11-18T06:46:17;7.30;;;5.67;;
20034;SDS011;10178;48.034;9.800;2023-11-18T06:48:56;8.40;;;6.57;;
20034;SDS011;10178;48.034;9.800;2023-11-18T06:51:25;7.47;;;5.47;;
20034;SDS011;10178;48.034;9.800;2023-11-18T06:53:55;10.47;;;6.53;;
20034;SDS011;10178;48.034;9.800;2023-11-18T06:56:24;6.87;;;5.17;;
20034;SDS011;10178;48.034;9.800;2023-11-18T06:58:51;6.07;;;5.30;;
20034;SDS011;10178;48.034;9.800;2023-11-18T07:01:17;7.20;;;5.53;;
20034;SDS011;10178;48.034;9.800;2023-11-18T07:03:46;5.32;;;4.40;;
20034;SDS011;10178;48.034;9.800;2023-11-18T07:06:19;4.67;;;3.83;;
20034;SDS011;10178;48.034;9.800;2023-11-18T07:08:48;4.80;;;4.30;;
20034;SDS011;10178;48.034;9.800;2023-11-18T07:11:15;6.53;;;4.60;;
20034;SDS011;10178;48.034;9.800;2023-11-18T07:13:41;5.22;;;4.55;;
20034;SDS011;10178;48.034;9.800;2023-11-18T07:16:07;4.80;;;4.20;;
20034;SDS011;10178;48.034;9.800;2023-11-18T07:18:34;6.33;;;4.30;;
20034;SDS011;10178;48.034;9.800;2023-11-18T07:21:00;5.00;;;4.28;;
20034;SDS011;10178;48.034;9.800;2023-11-18T07:23:28;5.83;;;4.90;;
20034;SDS011;10178;48.034;9.800;2023-11-18T07:25:54;5.73;;;4.50;;
20034;SDS011;10178;48.034;9.800;2023-11-18T07:28:21;7.47;;;5.67;;
20034;SDS011;10178;48.034;9.800;2023-11-18T07:30:47;4.67;;;4.17;;
20034;SDS011;10178;48.034;9.800;2023-11-18T07:33:16;4.85;;;4.00;;
20034;SDS011;10178;48.034;9.800;2023-11-18T07:35:44;7.77;;;5.90;;
20034;SDS011;10178;48.034;9.800;2023-11-18T07:38:11;7.10;;;5.83;;
20034;SDS011;10178;48.034;9.800;2023-11-18T07:40:37;5.23;;;4.30;;
20034;SDS011;10178;48.034;9.800;2023-11-18T07:43:07;6.87;;;4.87;;
20034;SDS011;10178;48.034;9.800;2023-11-18T07:45:37;5.47;;;4.47;;
20034;SDS011;10178;48.034;9.800;2023-11-18T07:48:06;5.50;;;4.30;;
20034;SDS011;10178;48.034;9.800;2023-11-18T07:50:36;4.30;;;3.90;;
20034;SDS011;10178;48.034;9.800;2023-11-18T07:53:03;4.88;;;4.38;;
20034;SDS011;10178;48.034;9.800;2023-11-18T07:55:31;6.30;;;4.65;;
20034;SDS011;10178;48.034;9.800;2023-11-18T07:58:04;5.60;;;4.72;;
20034;SDS011;10178;48.034;9.800;2023-11-18T08:00:39;4.93;;;4.15;;
20034;SDS011;10178;48.034;9.800;2023-11-18T08:03:10;8.23;;;5.70;;
20034;SDS011;10178;48.034;9.800;2023-11-18T08:08:59;5.57;;;4.10;;
20034;SDS011;10178;48.034;9.800;2023-11-18T08:11:24;6.20;;;4.10;;
20034;SDS011;10178;48.034;9.800;2023-11-18T08:13:50;6.88;;;4.60;;
20034;SDS011;10178;48.034;9.800;2023-11-18T08:16:16;4.88;;;4.15;;
20034;SDS011;10178;48.034;9.800;2023-11-18T08:18:48;6.23;;;5.03;;
20034;SDS011;10178;48.034;9.800;2023-11-18T08:21:14;4.40;;;4.00;;
20034;SDS011;10178;48.034;9.800;2023-11-18T08:23:39;4.80;;;4.30;;
20034;SDS011;10178;48.034;9.800;2023-11-18T08:26:05;8.20;;;5.70;;
20034;SDS011;10178;48.034;9.800;2023-11-18T08:28:31;5.50;;;4.93;;
20034;SDS011;10178;48.034;9.800;2023-11-18T08:30:56;4.43;;;3.88;;
20034;SDS011;10178;48.034;9.800;2023-11-18T08:33:22;4.60;;;4.00;;
20034;SDS011;10178;48.034;9.800;2023-11-18T08:35:50;5.75;;;3.83;;
20034;SDS011;10178;48.034;9.800;2023-11-18T08:38:16;5.25;;;4.07;;
20034;SDS011;10178;48.034;9.800;2023-11-18T08:40:42;4.30;;;3.90;;
20034;SDS011;10178;48.034;9.800;2023-11-18T08:43:10;5.55;;;3.95;;
20034;SDS011;10178;48.034;9.800;2023-11-18T08:45:36;4.55;;;3.63;;
20034;SDS011;10178;48.034;9.800;2023-11-18T08:48:02;4.43;;;4.03;;
20034;SDS011;10178;48.034;9.800;2023-11-18T08:50:32;5.20;;;3.50;;
20034;SDS011;10178;48.034;9.800;2023-11-18T08:52:59;4.03;;;3.63;;
20034;SDS011;10178;48.034;9.800;2023-11-18T08:55:29;4.40;;;4.00;;
20034;SDS011;10178;48.034;9.800;2023-11-18T08:58:06;6.88;;;5.32;;
20034;SDS011;10178;48.034;9.800;2023-11-18T09:00:47;5.50;;;3.27;;
20034;SDS011;10178;48.034;9.800;2023-11-18T09:03:18;5.23;;;3.50;;
20034;SDS011;10178;48.034;9.800;2023-11-18T09:05:59;5.35;;;3.47;;
20034;SDS011;10178;48.034;9.800;2023-11-18T09:08:36;4.25;;;3.50;;
20034;SDS011;10178;48.034;9.800;2023-11-18T09:11:08;7.40;;;5.20;;
20034;SDS011;10178;48.034;9.800;2023-11-18T09:13:36;6.32;;;4.60;;
20034;SDS011;10178;48.034;9.800;2023-11-18T09:16:06;5.30;;;4.07;;
20034;SDS011;10178;48.034;9.800;2023-11-18T09:18:33;3.97;;;3.57;;
20034;SDS011;10178;48.034;9.800;2023-11-18T09:21:04;4.25;;;3.05;;
20034;SDS011;10178;48.034;9.800;2023-11-18T09:23:32;5.33;;;4.80;;
20034;SDS011;10178;48.034;9.800;2023-11-18T09:26:01;5.27;;;4.33;;
20034;SDS011;10178;48.034;9.800;2023-11-18T09:28:28;3.33;;;3.03;;
20034;SDS011;10178;48.034;9.800;2023-11-18T09:30:54;4.07;;;3.47;;
20034;SDS011;10178;48.034;9.800;2023-11-18T09:33:23;3.88;;;3.47;;
20034;SDS011;10178;48.034;9.800;2023-11-18T09:36:13;3.73;;;3.37;;
20034;SDS011;10178;48.034;9.800;2023-11-18T09:38:39;3.50;;;3.20;;
20034;SDS011;10178;48.034;9.800;2023-11-18T09:41:06;4.68;;;3.47;;
20034;SDS011;10178;48.034;9.800;2023-11-18T09:43:36;4.47;;;4.07;;
20034;SDS011;10178;48.034;9.800;2023-11-18T09:46:12;8.63;;;4.97;;
20034;SDS011;10178;48.034;9.800;2023-11-18T09:48:42;7.32;;;4.85;;
20034;SDS011;10178;48.034;9.800;2023-11-18T09:51:19;5.32;;;4.15;;
20034;SDS011;10178;48.034;9.800;2023-11-18T09:53:46;7.80;;;3.90;;
20034;SDS011;10178;48.034;9.800;2023-11-18T09:56:44;4.50;;;4.10;;
20034;SDS011;10178;48.034;9.800;2023-11-18T10:02:51;3.97;;;3.10;;
20034;SDS011;10178;48.034;9.800;2023-11-18T10:05:18;4.10;;;3.60;;
20034;SDS011;10178;48.034;9.800;2023-11-18T10:07:51;5.50;;;3.67;;
20034;SDS011;10178;48.034;9.800;2023-11-18T10:10:17;5.40;;;4.20;;
20034;SDS011;10178;48.034;9.800;2023-11-18T10:12:49;3.35;;;3.03;;
20034;SDS011;10178;48.034;9.800;2023-11-18T10:15:23;4.93;;;3.90;;
20034;SDS011;10178;48.034;9.800;2023-11-18T10:17:50;3.88;;;3.33;;
20034;SDS011;10178;48.034;9.800;2023-11-18T10:20:44;4.33;;;3.33;;
20034;SDS011;10178;48.034;9.800;2023-11-18T10:23:11;5.23;;;3.23;;
20034;SDS011;10178;48.034;9.800;2023-11-18T10:25:49;4.73;;;3.27;;
20034;SDS011;10178;48.034;9.800;2023-11-18T10:28:47;7.47;;;4.25;;
20034;SDS011;10178;48.034;9.800;2023-11-18T10:31:07;5.13;;;4.27;;
20034;SDS011;10178;48.034;9.800;2023-11-18T10:33:37;6.40;;;4.20;;
20034;SDS011;10178;48.034;9.800;2023-11-18T10:36:06;5.23;;;4.47;;
20034;SDS011;10178;48.034;9.800;2023-11-18T10:38:47;6.73;;;4.17;;
20034;SDS011;10178;48.034;9.800;2023-11-18T10:41:14;4.03;;;3.30;;
20034;SDS011;10178;48.034;9.800;2023-11-18T10:43:43;6.00;;;4.77;;
20034;SDS011;10178;48.034;9.800;2023-11-18T10:46:12;3.20;;;2.90;;
20034;SDS011;10178;48.034;9.800;2023-11-18T10:48:40;6.77;;;4.13;;
20034;SDS011;10178;48.034;9.800;2023-11-18T10:51:09;6.90;;;4.50;;
20034;SDS011;10178;48.034;9.800;2023-11-18T10:53:42;6.30;;;3.83;;
20034;SDS011;10178;48.034;9.800;2023-11-18T10:56:26;4.70;;;3.53;;
20034;SDS011;10178;48.034;9.800;2023-11-18T10:59:04;4.07;;;3.10;;
20034;SDS011;10178;48.034;9.800;2023-11-18T11:01:31;4.00;;;3.15;;
20034;SDS011;10178;48.034;9.800;2023-11-18T11:03:58;6.90;;;3.80;;
20034;SDS011;10178;48.034;9.800;2023-11-18T11:06:24;3.63;;;3.20;;
20034;SDS011;10178;48.034;9.800;2023-11-18T11:08:55;3.67;;;2.90;;
20034;SDS011;10178;48.034;9.800;2023-11-18T11:11:24;3.45;;;3.15;;
20034;SDS011;10178;48.034;9.800;2023-11-18T11:13:57;7.60;;;3.25;;
20034;SDS011;10178;48.034;9.800;2023-11-18T11:16:38;5.30;;;2.80;;
20034;SDS011;10178;48.034;9.800;2023-11-18T11:19:12;3.10;;;2.63;;
20034;SDS011;10178;48.034;9.800;2023-11-18T11:22:09;4.40;;;3.20;;
20034;SDS011;10178;48.034;9.800;2023-11-18T11:29:51;5.67;;;4.30;;
20034;SDS011;10178;48.034;9.800;2023-11-18T11:32:35;3.37;;;2.87;;
20034;SDS011;10178;48.034;9.800;2023-11-18T11:35:14;3.90;;;3.23;;
20034;SDS011;10178;48.034;9.800;2023-11-18T11:37:46;4.13;;;3.72;;
20034;SDS011;10178;48.034;9.800;2023-11-18T11:40:14;3.67;;;3.00;;
20034;SDS011;10178;48.034;9.800;2023-11-18T11:42:47;3.47;;;2.70;;
20034;SDS011;10178;48.034;9.800;2023-11-18T11:45:20;3.97;;;3.57;;
20034;SDS011;10178;48.034;9.800;2023-11-18T11:47:50;2.83;;;2.63;;
20034;SDS011;10178;48.034;9.800;2023-11-18T11:50:19;2.83;;;2.63;;
20034;SDS011;10178;48.034;9.800;2023-11-18T11:52:58;2.80;;;2.58;;
20034;SDS011;10178;48.034;9.800;2023-11-18T11:55:41;3.00;;;2.40;;
20034;SDS011;10178;48.034;9.800;2023-11-18T12:01:01;3.77;;;2.83;;
20034;SDS011;10178;48.034;9.800;2023-11-18T12:03:43;3.45;;;2.78;;
20034;SDS011;10178;48.034;9.800;2023-11-18T12:06:12;6.28;;;3.17;;
20034;SDS011;10178;48.034;9.800;2023-11-18T12:08:49;7.35;;;3.58;;
20034;SDS011;10178;48.034;9.800;2023-11-18T12:11:17;3.97;;;2.75;;
20034;SDS011;10178;48.034;9.800;2023-11-18T12:14:04;4.32;;;2.90;;
20034;SDS011;10178;48.034;9.800;2023-11-18T12:19:42;3.75;;;2.72;;
20034;SDS011;10178;48.034;9.800;2023-11-18T12:22:15;2.58;;;2.15;;
20034;SDS011;10178;48.034;9.800;2023-11-18T12:35:23;3.67;;;2.72;;
20034;SDS011;10178;48.034;9.800;2023-11-18T12:40:59;3.47;;;2.90;;
20034;SDS011;10178;48.034;9.800;2023-11-18T12:49:18;4.40;;;3.03;;
20034;SDS011;10178;48.034;9.800;2023-11-18T12:51:55;2.42;;;2.20;;
20034;SDS011;10178;48.034;9.800;2023-11-18T12:54:25;2.83;;;2.47;;
20034;SDS011;10178;48.034;9.800;2023-11-18T12:56:57;2.90;;;2.53;;
20034;SDS011;10178;48.034;9.800;2023-11-18T12:59:26;4.97;;;2.80;;
20034;SDS011;10178;48.034;9.800;2023-11-18T13:01:51;3.03;;;2.63;;
20034;SDS011;10178;48.034;9.800;2023-11-18T13:04:21;3.05;;;2.35;;
20034;SDS011;10178;48.034;9.800;2023-11-18T13:06:49;2.50;;;2.17;;
20034;SDS011;10178;48.034;9.800;2023-11-18T13:09:16;5.33;;;2.07;;
20034;SDS011;10178;48.034;9.800;2023-11-18T13:11:55;2.17;;;1.87;;
20034;SDS011;10178;48.034;9.800;2023-11-18T13:14:27;2.20;;;2.00;;
20034;SDS011;10178;48.034;9.800;2023-11-18T13:17:01;3.85;;;2.33;;
20034;SDS011;10178;48.034;9.800;2023-11-18T13:19:31;2.90;;;2.10;;
20034;SDS011;10178;48.034;9.800;2023-11-18T13:22:03;3.75;;;2.40;;
20034;SDS011;10178;48.034;9.800;2023-11-18T13:24:37;3.20;;;2.03;;
20034;SDS011;10178;48.034;9.800;2023-11-18T13:27:09;4.90;;;1.80;;
20034;SDS011;10178;48.034;9.800;2023-11-18T13:29:35;5.47;;;2.80;;
20034;SDS011;10178;48.034;9.800;2023-11-18T13:32:11;3.42;;;2.53;;
20034;SDS011;10178;48.034;9.800;2023-11-18T13:34:37;2.60;;;2.40;;
20034;SDS011;10178;48.034;9.800;2023-11-18T13:37:07;3.57;;;2.87;;
20034;SDS011;10178;48.034;9.800;2023-11-18T13:39:33;4.60;;;2.28;;
20034;SDS011;10178;48.034;9.800;2023-11-18T13:42:19;3.22;;;2.72;;
20034;SDS011;10178;48.034;9.800;2023-11-18T13:44:45;2.60;;;2.40;;
20034;SDS011;10178;48.034;9.800;2023-11-18T13:47:12;4.68;;;2.22;;
20034;SDS011;10178;48.034;9.800;2023-11-18T13:49:38;5.40;;;3.10;;
20034;SDS011;10178;48.034;9.800;2023-11-18T13:52:08;3.47;;;1.90;;
20034;SDS011;10178;48.034;9.800;2023-11-18T13:54:35;3.95;;;2.30;;
20034;SDS011;10178;48.034;9.800;2023-11-18T13:57:02;3.30;;;2.08;;
20034;SDS011;10178;48.034;9.800;2023-11-18T13:59:29;2.53;;;2.33;;
20034;SDS011;10178;48.034;9.800;2023-11-18T14:01:55;7.33;;;3.00;;
20034;SDS011;10178;48.034;9.800;2023-11-18T14:04:26;3.30;;;3.00;;
20034;SDS011;10178;48.034;9.800;2023-11-18T14:06:53;9.55;;;2.30;;
20034;SDS011;10178;48.034;9.800;2023-11-18T14:09:22;2.25;;;2.05;;
20034;SDS011;10178;48.034;9.800;2023-11-18T14:11:51;3.33;;;2.80;;
20034;SDS011;10178;48.034;9.800;2023-11-18T14:14:20;4.60;;;2.42;;
20034;SDS011;10178;48.034;9.800;2023-11-18T14:16:46;2.45;;;1.98;;
20034;SDS011;10178;48.034;9.800;2023-11-18T14:19:11;2.80;;;2.30;;
20034;SDS011;10178;48.034;9.800;2023-11-18T14:21:38;2.42;;;2.10;;
20034;SDS011;10178;48.034;9.800;2023-11-18T14:24:05;3.20;;;2.53;;
20034;SDS011;10178;48.034;9.800;2023-11-18T14:26:33;2.80;;;2.50;;
20034;SDS011;10178;48.034;9.800;2023-11-18T14:28:58;5.93;;;2.30;;
20034;SDS011;10178;48.034;9.800;2023-11-18T14:31:25;2.83;;;2.63;;
20034;SDS011;10178;48.034;9.800;2023-11-18T14:33:51;3.00;;;2.70;;
20034;SDS011;10178;48.034;9.800;2023-11-18T14:36:17;3.07;;;2.33;;
20034;SDS011;10178;48.034;9.800;2023-11-18T14:38:44;4.25;;;1.98;;
20034;SDS011;10178;48.034;9.800;2023-11-18T14:41:10;2.47;;;2.03;;
20034;SDS011;10178;48.034;9.800;2023-11-18T14:43:36;2.65;;;2.17;;
20034;SDS011;10178;48.034;9.800;2023-11-18T14:46:02;2.38;;;2.15;;
20034;SDS011;10178;48.034;9.800;2023-11-18T14:48:29;3.28;;;2.20;;
20034;SDS011;10178;48.034;9.800;2023-11-18T14:50:54;6.10;;;1.87;;
20034;SDS011;10178;48.034;9.800;2023-11-18T14:53:22;4.93;;;2.67;;
20034;SDS011;10178;48.034;9.800;2023-11-18T14:55:47;18.67;;;10.70;;
20034;SDS011;10178;48.034;9.800;2023-11-18T14:58:13;11.25;;;6.72;;
20034;SDS011;10178;48.034;9.800;2023-11-18T15:00:39;6.38;;;4.22;;
20034;SDS011;10178;48.034;9.800;2023-11-18T15:03:04;4.85;;;3.67;;
20034;SDS011;10178;48.034;9.800;2023-11-18T15:05:31;5.37;;;3.27;;
20034;SDS011;10178;48.034;9.800;2023-11-18T15:07:56;8.43;;;4.77;;
20034;SDS011;10178;48.034;9.800;2023-11-18T15:10:26;7.70;;;3.30;;
20034;SDS011;10178;48.034;9.800;2023-11-18T15:12:53;5.93;;;3.77;;
20034;SDS011;10178;48.034;9.800;2023-11-18T15:15:32;4.70;;;2.90;;
20034;SDS011;10178;48.034;9.800;2023-11-18T15:17:59;4.95;;;2.95;;
20034;SDS011;10178;48.034;9.800;2023-11-18T15:20:28;3.63;;;2.70;;
20034;SDS011;10178;48.034;9.800;2023-11-18T15:22:54;4.60;;;3.90;;
20034;SDS011;10178;48.034;9.800;2023-11-18T15:25:20;2.63;;;2.38;;
20034;SDS011;10178;48.034;9.800;2023-11-18T15:27:46;4.72;;;2.85;;
20034;SDS011;10178;48.034;9.800;2023-11-18T15:30:16;3.53;;;2.60;;
20034;SDS011;10178;48.034;9.800;2023-11-18T15:32:42;3.67;;;2.40;;
20034;SDS011;10178;48.034;9.800;2023-11-18T15:35:09;4.38;;;2.50;;
20034;SDS011;10178;48.034;9.800;2023-11-18T15:37:39;2.80;;;2.40;;
20034;SDS011;10178;48.034;9.800;2023-11-18T15:40:13;3.25;;;2.60;;
20034;SDS011;10178;48.034;9.800;2023-11-18T15:42:44;7.70;;;5.22;;